createdAt,value
2019-03-17T00:00:41.210Z,5.63
2019-03-17T00:05:46.217Z,6.77
2019-03-17T00:10:52.616Z,19.07
2019-03-17T00:15:57.774Z,5.90
2019-03-17T00:21:02.640Z,13.33
2019-03-17T00:26:07.378Z,6.43
2019-03-17T00:31:23.243Z,6.60
2019-03-17T00:36:18.407Z,9.90
2019-03-17T00:41:23.153Z,11.13
2019-03-17T00:46:27.890Z,14.80
2019-03-17T00:51:33.554Z,11.13
2019-03-17T00:56:38.195Z,13.07
2019-03-17T01:01:42.946Z,9.93
2019-03-17T01:06:47.683Z,10.90
2019-03-17T01:11:53.547Z,8.53
2019-03-17T01:16:59.340Z,7.67
2019-03-17T01:22:04.064Z,8.00
2019-03-17T01:27:08.801Z,6.40
2019-03-17T01:32:13.546Z,10.20
2019-03-17T01:37:18.392Z,8.40
2019-03-17T01:42:24.260Z,7.73
2019-03-17T01:47:29.008Z,7.57
2019-03-17T01:52:33.750Z,6.70
2019-03-17T01:57:38.488Z,7.10
2019-03-17T02:02:43.232Z,8.53
2019-03-17T02:07:47.975Z,8.63
2019-03-17T02:12:52.720Z,8.43
2019-03-17T02:17:57.457Z,10.93
2019-03-17T02:23:02.202Z,11.13
2019-03-17T02:28:06.835Z,12.17
2019-03-17T02:33:11.524Z,12.20
2019-03-17T02:38:16.184Z,10.43
2019-03-17T02:43:21.081Z,16.00
2019-03-17T02:48:25.651Z,15.93
2019-03-17T02:53:30.354Z,12.47
2019-03-17T02:58:34.987Z,12.80
2019-03-17T03:03:39.634Z,12.63
2019-03-17T03:08:44.277Z,12.47
2019-03-17T03:13:48.926Z,12.30
2019-03-17T03:18:53.657Z,12.77
2019-03-17T03:23:58.403Z,12.57
2019-03-17T03:29:03.035Z,13.27
2019-03-17T03:34:07.684Z,18.10
2019-03-17T03:39:12.456Z,13.30
2019-03-17T03:44:17.065Z,16.43
2019-03-17T03:49:21.715Z,20.13
2019-03-17T03:54:26.449Z,8.83
2019-03-17T03:59:31.195Z,8.50
2019-03-17T04:04:35.827Z,9.47
2019-03-17T04:09:42.232Z,13.70
2019-03-17T04:14:46.858Z,14.60
2019-03-17T04:19:51.603Z,14.17
2019-03-17T04:24:56.238Z,14.10
2019-03-17T04:30:00.906Z,13.30
2019-03-17T04:35:07.053Z,13.53
2019-03-17T04:40:11.805Z,14.73
2019-03-17T04:45:16.757Z,14.97
2019-03-17T04:50:21.386Z,16.07
2019-03-17T04:55:26.129Z,15.13
2019-03-17T05:00:32.639Z,26.57
2019-03-17T05:05:37.455Z,23.07
2019-03-17T05:10:42.201Z,20.07
2019-03-17T05:15:47.149Z,16.20
2019-03-17T05:20:52.319Z,14.90
2019-03-17T05:25:57.557Z,16.43
2019-03-17T05:31:02.400Z,19.30
2019-03-17T05:36:07.247Z,22.23
2019-03-17T05:41:11.896Z,25.87
2019-03-17T05:46:16.638Z,24.93
2019-03-17T05:51:21.264Z,24.50
2019-03-17T05:56:26.116Z,23.57
2019-03-17T06:01:30.758Z,47.53
2019-03-17T06:06:35.503Z,38.07
2019-03-17T06:11:40.345Z,27.20
2019-03-17T06:16:46.215Z,21.13
2019-03-17T06:21:52.713Z,18.03
2019-03-17T06:26:57.540Z,25.90
2019-03-17T06:32:02.287Z,24.60
2019-03-17T06:37:07.139Z,24.07
2019-03-17T06:42:11.895Z,25.87
2019-03-17T06:47:16.940Z,25.93
2019-03-17T06:52:23.969Z,25.20
2019-03-17T06:57:28.769Z,20.33
2019-03-17T07:02:33.510Z,17.07
2019-03-17T07:07:43.816Z,15.37
2019-03-17T07:12:44.857Z,25.53
2019-03-17T07:17:51.732Z,22.37
2019-03-17T07:22:57.311Z,22.70
2019-03-17T07:28:03.248Z,25.63
2019-03-17T07:33:08.324Z,26.10
2019-03-17T07:38:14.349Z,21.50
2019-03-17T07:43:20.209Z,24.17
2019-03-17T07:48:26.661Z,21.20
2019-03-17T07:53:33.878Z,20.20
2019-03-17T07:58:38.860Z,16.30
2019-03-17T08:03:43.591Z,13.07
2019-03-17T08:08:56.898Z,11.57
2019-03-17T08:14:06.231Z,11.50
2019-03-17T08:19:11.090Z,9.90
2019-03-17T08:24:16.439Z,9.50
2019-03-17T08:29:21.184Z,7.57
2019-03-17T08:34:28.545Z,5.97
2019-03-17T08:39:35.425Z,9.17
2019-03-17T08:44:41.457Z,8.33
2019-03-17T08:49:46.304Z,7.20
2019-03-17T08:54:51.386Z,9.10
2019-03-17T08:59:56.402Z,6.43
2019-03-17T09:05:01.678Z,6.33
2019-03-17T09:10:14.658Z,5.77
2019-03-17T09:15:21.525Z,4.90
2019-03-17T09:20:26.444Z,4.97
2019-03-17T09:25:32.990Z,8.63
2019-03-17T09:30:38.002Z,6.40
2019-03-17T09:35:42.633Z,5.77
2019-03-17T09:45:58.310Z,6.43
2019-03-17T09:51:03.340Z,7.83
2019-03-17T09:56:08.451Z,3.13
2019-03-17T10:01:13.194Z,2.87
2019-03-17T10:06:19.120Z,2.90
2019-03-17T10:11:24.357Z,2.90
2019-03-17T10:16:30.701Z,2.80
2019-03-17T10:21:35.646Z,2.97
2019-03-17T10:26:40.437Z,2.33
2019-03-17T10:31:46.154Z,3.20
2019-03-17T10:36:53.186Z,5.90
2019-03-17T10:41:58.850Z,6.33
2019-03-17T10:47:03.984Z,7.20
2019-03-17T10:52:09.236Z,6.40
2019-03-17T10:57:14.083Z,6.40
2019-03-17T11:02:18.840Z,6.00
2019-03-17T11:07:23.576Z,3.57
2019-03-17T11:12:28.524Z,3.50
2019-03-17T11:17:33.579Z,5.07
2019-03-17T11:22:43.774Z,5.10
2019-03-17T11:27:56.094Z,2.70
2019-03-17T11:33:07.624Z,2.80
2019-03-17T11:38:24.837Z,2.90
2019-03-17T11:43:31.907Z,4.30
2019-03-17T11:48:36.748Z,2.97
2019-03-17T11:53:42.042Z,2.10
2019-03-17T11:58:46.748Z,2.10
2019-03-17T12:03:51.697Z,3.00
2019-03-17T12:08:56.444Z,2.30
2019-03-17T12:14:01.194Z,5.80
2019-03-17T12:19:07.567Z,2.23
2019-03-17T12:24:12.355Z,2.80
2019-03-17T12:29:17.468Z,2.27
2019-03-17T12:34:28.062Z,2.50
2019-03-17T12:39:28.800Z,2.10
2019-03-17T12:44:33.746Z,2.27
2019-03-17T12:49:40.481Z,2.07
2019-03-17T12:54:45.185Z,2.50
2019-03-17T12:59:49.931Z,3.53
2019-03-17T13:04:54.658Z,2.63
2019-03-17T13:09:59.417Z,2.90
2019-03-17T13:15:06.439Z,2.30
2019-03-17T13:20:16.374Z,2.53
2019-03-17T13:25:21.125Z,2.10
2019-03-17T13:30:25.875Z,2.20
2019-03-17T13:35:30.609Z,5.20
2019-03-17T13:40:36.611Z,2.83
2019-03-17T13:45:41.436Z,3.33
2019-03-17T13:50:47.061Z,9.97
2019-03-17T13:55:51.940Z,3.00
2019-03-17T14:00:57.708Z,3.17
2019-03-17T14:06:03.262Z,2.90
2019-03-17T14:11:09.251Z,9.67
2019-03-17T14:16:15.829Z,3.90
2019-03-17T14:21:24.419Z,4.53
2019-03-17T14:26:28.465Z,2.40
2019-03-17T14:31:33.244Z,2.03
2019-03-17T14:36:38.087Z,2.60
2019-03-17T14:41:44.044Z,7.40
2019-03-17T14:46:50.694Z,3.17
2019-03-17T14:51:56.673Z,2.57
2019-03-17T14:57:01.344Z,2.23
2019-03-17T15:02:06.212Z,2.97
2019-03-17T15:07:10.900Z,2.97
2019-03-17T15:12:15.603Z,2.90
2019-03-17T15:17:20.547Z,2.50
2019-03-17T15:22:25.375Z,2.10
2019-03-17T15:27:30.240Z,1.90
2019-03-17T15:32:35.086Z,2.17
2019-03-17T15:37:40.031Z,3.27
2019-03-17T15:42:44.780Z,2.80
2019-03-17T15:47:50.131Z,15.13
2019-03-17T15:52:56.823Z,9.90
2019-03-17T15:58:01.429Z,9.70
2019-03-17T16:03:06.272Z,10.53
2019-03-17T16:08:11.360Z,9.47
2019-03-17T16:13:16.001Z,2.30
2019-03-17T16:18:20.757Z,4.23
2019-03-17T16:23:25.374Z,2.73
2019-03-17T16:28:30.035Z,4.00
2019-03-17T16:33:35.626Z,4.30
2019-03-17T16:38:40.352Z,5.60
2019-03-17T16:43:47.777Z,5.67
2019-03-17T16:48:56.205Z,7.10
2019-03-17T16:54:05.105Z,6.90
2019-03-17T16:59:14.138Z,6.50
2019-03-17T17:04:22.977Z,6.10
2019-03-17T17:09:28.510Z,7.07
2019-03-17T17:14:36.576Z,16.33
2019-03-17T17:19:45.347Z,9.03
2019-03-17T17:24:53.723Z,8.93
2019-03-17T17:30:02.114Z,6.83
2019-03-17T17:35:11.069Z,7.40
2019-03-17T17:40:23.665Z,28.77
2019-03-17T17:45:32.877Z,10.87
2019-03-17T17:50:42.227Z,16.37
2019-03-17T17:55:50.231Z,17.00
2019-03-17T18:01:00.732Z,10.63
2019-03-17T18:06:10.320Z,25.27
2019-03-17T18:11:16.709Z,13.63
2019-03-17T18:16:25.849Z,10.97
2019-03-17T18:21:35.321Z,13.87
2019-03-17T18:26:40.957Z,15.13
2019-03-17T18:31:45.799Z,18.77
2019-03-17T18:36:50.654Z,15.37
2019-03-17T18:41:55.394Z,12.30
2019-03-17T18:47:01.243Z,20.93
2019-03-17T18:52:10.120Z,23.10
2019-03-17T18:57:20.712Z,20.43
2019-03-17T19:02:26.757Z,18.07
2019-03-17T19:07:31.612Z,11.53
2019-03-17T19:12:44.936Z,10.07
2019-03-17T19:17:42.734Z,12.30
2019-03-17T19:22:49.013Z,12.47
2019-03-17T19:27:53.756Z,10.20
2019-03-17T19:32:58.498Z,10.20
2019-03-17T19:38:03.135Z,9.73
2019-03-17T19:43:08.185Z,11.60
2019-03-17T19:48:13.046Z,11.20
2019-03-17T19:53:18.112Z,16.90
2019-03-17T19:58:23.033Z,15.40
2019-03-17T20:03:28.488Z,17.17
2019-03-17T20:08:34.408Z,14.63
2019-03-17T20:13:39.740Z,14.27
2019-03-17T20:18:45.098Z,17.30
2019-03-17T20:23:50.600Z,19.50
2019-03-17T20:28:56.233Z,14.80
2019-03-17T20:34:02.175Z,15.27
2019-03-17T20:39:09.738Z,10.60
2019-03-17T20:44:14.535Z,9.27
2019-03-17T20:49:19.267Z,9.13
2019-03-17T20:54:23.910Z,12.80
2019-03-17T20:59:28.751Z,9.70
2019-03-17T21:04:33.317Z,8.57
2019-03-17T21:09:38.037Z,9.70
2019-03-17T21:14:42.779Z,11.17
2019-03-17T21:19:47.625Z,12.37
2019-03-17T21:24:52.369Z,9.23
2019-03-17T21:29:57.108Z,9.00
2019-03-17T21:35:01.855Z,9.60
2019-03-17T21:40:09.428Z,9.50
2019-03-17T21:45:14.397Z,10.07
2019-03-17T21:50:20.998Z,15.47
2019-03-17T21:55:25.945Z,17.13
2019-03-17T22:00:30.690Z,15.13
2019-03-17T22:05:35.431Z,13.13
2019-03-17T22:10:40.271Z,12.00
2019-03-17T22:15:45.230Z,9.47
2019-03-17T22:20:49.968Z,9.23
2019-03-17T22:25:54.811Z,14.23
2019-03-17T22:30:59.561Z,14.27
2019-03-17T22:36:04.307Z,15.30
2019-03-17T22:41:09.050Z,14.67
2019-03-17T22:46:13.786Z,12.67
2019-03-17T22:51:18.746Z,12.13
2019-03-17T22:56:23.683Z,12.03
2019-03-17T23:01:28.530Z,12.57
2019-03-17T23:06:33.188Z,10.80
2019-03-17T23:11:37.811Z,11.57
2019-03-17T23:16:42.407Z,9.63
2019-03-17T23:21:47.835Z,10.70
2019-03-17T23:26:52.758Z,11.40
2019-03-17T23:31:57.599Z,10.63
2019-03-17T23:37:02.343Z,9.67
2019-03-17T23:42:06.988Z,10.67
2019-03-17T23:47:11.630Z,14.27
2019-03-17T23:52:16.280Z,12.40
2019-03-17T23:57:21.113Z,16.80
